Time;durP1;ratioP1;P1;durP2;ratioP2;P2;SDS_P1;SDS_P2;PMS_P1;PMS_P2;Temp;Humidity;BMP_temperature;BMP_pressure;BME280_temperature;BME280_humidity;BME280_pressure;Samples;Min_cycle;Max_cycle;Signal;HPM_P1;HPM_P2
2022/11/27 00:01:25;;;;;;;;;9.50;8.00;;;;;2.79;88.93;99725.78;4906360;28;103366;-75
2022/11/27 00:03:54;;;;;;;;;4.00;3.00;;;;;2.84;89.68;99722.69;4905500;28;101664;-77
2022/11/27 00:06:24;;;;;;;;;2.75;2.00;;;;;2.84;89.62;99720.88;4907824;28;101572;-78
2022/11/27 00:08:54;;;;;;;;;8.50;8.00;;;;;2.87;89.74;99725.13;4905658;28;104600;-79
2022/11/27 00:11:23;;;;;;;;;7.50;7.25;;;;;2.87;89.60;99720.66;4903325;28;107858;-78
2022/11/27 00:13:50;;;;;;;;;16.25;13.00;;;;;2.76;89.30;99717.13;4901695;28;102394;-79
2022/11/27 00:16:20;;;;;;;;;11.50;9.75;;;;;2.76;89.16;99725.16;4901304;28;101893;-78
2022/11/27 00:18:48;;;;;;;;;11.00;10.00;;;;;2.72;89.24;99721.88;4900150;28;101798;-79
2022/11/27 00:21:27;;;;;;;;;14.00;10.50;;;;;2.69;89.35;99725.66;4911373;28;103275;-78
2022/11/27 00:23:56;;;;;;;;;22.50;14.75;;;;;2.69;88.93;99724.81;4889848;28;101790;-78
2022/11/27 00:26:24;;;;;;;;;29.25;23.75;;;;;2.64;90.81;99738.53;4899013;28;101842;-78
2022/11/27 00:28:51;;;;;;;;;20.25;13.00;;;;;2.66;90.95;99731.22;4910793;28;101633;-79
2022/11/27 00:31:26;;;;;;;;;15.00;12.00;;;;;2.72;91.17;99732.56;4905510;28;110374;-78
2022/11/27 00:34:00;;;;;;;;;9.00;8.00;;;;;2.58;90.17;99695.44;4893454;28;101890;-78
2022/11/27 00:36:30;;;;;;;;;14.00;12.75;;;;;2.84;90.25;99736.06;4895320;28;101852;-78
2022/11/27 00:38:57;;;;;;;;;7.25;6.75;;;;;2.86;90.59;99726.09;4911021;28;101739;-79
2022/11/27 00:41:27;;;;;;;;;6.75;5.25;;;;;2.80;89.82;99722.09;4905195;28;103380;-78
2022/11/27 00:43:55;;;;;;;;;9.25;7.00;;;;;2.89;90.96;99721.34;4906747;28;102096;-77
2022/11/27 00:46:25;;;;;;;;;15.75;14.50;;;;;2.89;90.84;99728.50;4901335;28;101829;-73
2022/11/27 00:48:59;;;;;;;;;10.50;8.50;;;;;2.87;90.37;99730.47;4908202;28;101737;-78
2022/11/27 00:51:27;;;;;;;;;8.75;8.50;;;;;2.80;91.26;99718.59;4899144;28;103387;-78
2022/11/27 00:53:54;;;;;;;;;10.50;9.25;;;;;2.76;90.71;99715.31;4898931;28;101839;-78
2022/11/27 00:56:25;;;;;;;;;15.75;14.75;;;;;2.83;90.35;99732.56;4907998;28;101997;-78
2022/11/27 00:58:52;;;;;;;;;24.00;22.25;;;;;2.64;91.21;99705.63;4904967;28;102281;-78
2022/11/27 01:01:22;;;;;;;;;39.00;28.00;;;;;2.64;92.32;99727.84;4901048;28;107803;-79
2022/11/27 01:03:50;;;;;;;;;36.00;31.00;;;;;2.60;92.76;99730.88;4913619;28;101791;-79
2022/11/27 01:06:18;;;;;;;;;38.33;32.67;;;;;2.49;93.15;99702.38;4906650;28;101683;-78
2022/11/27 01:08:46;;;;;;;;;49.00;36.33;;;;;2.49;93.37;99718.38;4901722;28;101762;-79
2022/11/27 01:11:19;;;;;;;;;32.00;22.75;;;;;2.53;92.66;99719.00;4894573;28;103553;-79
2022/11/27 01:13:47;;;;;;;;;33.00;25.67;;;;;2.54;92.76;99718.88;4908039;28;102114;-79
2022/11/27 01:16:20;;;;;;;;;16.00;14.50;;;;;2.58;93.42;99716.81;4907074;28;101691;-79
2022/11/27 01:18:49;;;;;;;;;25.00;21.25;;;;;2.60;93.25;99720.22;4904595;28;101616;-79
2022/11/27 01:21:19;;;;;;;;;30.25;25.00;;;;;2.61;92.59;99717.41;4900242;28;103527;-79
2022/11/27 01:23:47;;;;;;;;;11.25;10.25;;;;;2.66;92.30;99717.88;4906118;28;101862;-78
2022/11/27 01:26:16;;;;;;;;;10.00;5.25;;;;;2.63;91.90;99712.78;4902848;28;101525;-79
2022/11/27 01:28:44;;;;;;;;;9.25;9.00;;;;;2.72;91.23;99726.38;4909922;28;101960;-79
2022/11/27 01:31:17;;;;;;;;;9.75;6.75;;;;;2.70;90.46;99716.66;4903262;28;103353;-78
2022/11/27 01:33:45;;;;;;;;;11.75;9.00;;;;;2.77;91.54;99721.50;4900598;28;101602;-77
2022/11/27 01:36:14;;;;;;;;;6.50;5.00;;;;;2.77;90.36;99732.19;4905379;28;102460;-78
2022/11/27 01:38:41;;;;;;;;;9.25;8.50;;;;;2.79;89.94;99725.78;4906400;28;101817;-79
2022/11/27 01:41:11;;;;;;;;;14.00;11.25;;;;;2.81;90.72;99723.81;4905735;28;103532;-78
2022/11/27 01:43:52;;;;;;;;;8.00;7.00;;;;;2.78;88.50;99718.72;4905268;28;102001;-78
2022/11/27 01:46:37;;;;;;;;;11.25;9.00;;;;;2.78;89.24;99712.53;4897297;28;101631;-79
2022/11/27 01:49:19;;;;;;;;;10.25;7.00;;;;;2.77;90.10;99724.19;4897045;28;101967;-79
2022/11/27 01:51:56;;;;;;;;;9.00;9.00;;;;;2.79;89.73;99724.91;4903815;28;103291;-78
2022/11/27 01:54:28;;;;;;;;;19.00;12.50;;;;;2.77;90.42;99710.81;4896792;28;102498;-77
2022/11/27 01:57:01;;;;;;;;;7.25;6.50;;;;;2.77;90.60;99721.50;4906582;28;101833;-78
2022/11/27 01:59:29;;;;;;;;;6.00;6.00;;;;;2.78;89.66;99723.22;4900150;28;101976;-79
2022/11/27 02:01:56;;;;;;;;;6.50;6.25;;;;;2.77;89.79;99710.81;4899649;28;103464;-79
2022/11/27 02:04:23;;;;;;;;;7.50;4.50;;;;;2.78;88.62;99712.53;4898786;28;102161;-73
2022/11/27 02:07:05;;;;;;;;;10.00;10.00;;;;;2.57;88.65;99681.25;4907133;28;101671;-79
2022/11/27 02:09:51;;;;;;;;;18.75;14.75;;;;;2.84;88.29;99722.69;4898967;28;102055;-78
2022/11/27 02:12:43;;;;;;;;;12.00;10.00;;;;;2.82;88.11;99717.50;4895752;28;106745;-78
2022/11/27 02:16:15;;;;;;;;;5.00;5.00;;;;;2.77;88.65;99722.38;4904030;28;101879;-77
2022/11/27 02:19:29;;;;;;;;;18.00;12.25;;;;;2.75;88.19;99723.47;4898384;28;101813;-78
2022/11/27 02:22:32;;;;;;;;;19.75;15.00;;;;;2.80;89.54;99729.25;4902226;28;101667;-77
2022/11/27 02:25:33;;;;;;;;;19.75;16.25;;;;;2.80;89.70;99719.44;4891903;28;107875;-78
2022/11/27 02:28:28;;;;;;;;;8.50;6.75;;;;;2.78;90.15;99725.88;4899941;28;101697;-78
2022/11/27 02:31:17;;;;;;;;;11.00;7.00;;;;;2.78;89.22;99721.41;4892957;28;102757;-78
2022/11/27 02:33:52;;;;;;;;;8.50;7.50;;;;;2.79;90.19;99722.25;4897195;28;101903;-77
2022/11/27 02:36:24;;;;;;;;;8.50;5.75;;;;;2.81;90.64;99723.81;4898147;28;107828;-78
2022/11/27 02:38:58;;;;;;;;;7.00;6.00;;;;;2.83;89.98;99716.53;4902855;28;103735;-78
2022/11/27 02:41:35;;;;;;;;;5.00;5.00;;;;;2.74;90.28;99713.75;4904857;28;101941;-78
2022/11/27 02:44:04;;;;;;;;;15.25;13.75;;;;;2.83;90.20;99729.88;4904252;28;101840;-78
2022/11/27 02:46:32;;;;;;;;;8.75;7.00;;;;;2.81;89.90;99728.28;4897418;28;103102;-78
2022/11/27 02:49:07;;;;;;;;;9.25;8.50;;;;;2.81;89.63;99738.97;4901494;28;101923;-78
2022/11/27 02:51:40;;;;;;;;;11.50;10.75;;;;;2.80;89.79;99727.44;4905184;28;101450;-78
2022/11/27 02:54:12;;;;;;;;;9.00;8.25;;;;;2.81;89.74;99731.81;4905052;28;101642;-78
2022/11/27 02:56:41;;;;;;;;;13.00;10.25;;;;;2.81;89.17;99739.84;4901919;28;103497;-78
2022/11/27 02:59:12;;;;;;;;;15.00;13.25;;;;;2.81;89.10;99741.66;4899737;28;101883;-78
2022/11/27 03:01:47;;;;;;;;;11.00;6.50;;;;;2.77;88.36;99749.06;4900938;28;101733;-78
2022/11/27 03:04:19;;;;;;;;;14.50;12.00;;;;;2.71;88.97;99738.88;4902421;28;101692;-78
2022/11/27 03:06:53;;;;;;;;;21.25;14.75;;;;;2.68;88.20;99748.00;4902150;28;103503;-78
2022/11/27 03:09:43;;;;;;;;;18.00;11.75;;;;;2.69;86.96;99740.84;4895541;28;101752;-78
2022/11/27 03:12:12;;;;;;;;;10.75;4.00;;;;;2.71;88.02;99749.56;4901800;28;101716;-79
2022/11/27 03:14:41;;;;;;;;;17.00;14.25;;;;;2.63;89.12;99743.97;4902583;28;101892;-79
2022/11/27 03:17:36;;;;;;;;;19.75;15.50;;;;;2.68;89.02;99744.47;4896913;28;103341;-78
2022/11/27 03:20:11;;;;;;;;;15.75;15.75;;;;;2.69;89.65;99746.16;4895210;28;101853;-79
2022/11/27 03:22:38;;;;;;;;;11.00;9.25;;;;;2.70;88.75;99746.03;4900699;28;104077;-78
2022/11/27 03:25:05;;;;;;;;;19.75;17.00;;;;;2.69;89.79;99747.03;4896266;28;102100;-78
2022/11/27 03:27:37;;;;;;;;;23.25;19.75;;;;;2.65;89.73;99740.25;4898798;28;103294;-77
2022/11/27 03:30:10;;;;;;;;;19.25;14.25;;;;;2.62;89.93;99748.47;4892515;28;101840;-78
2022/11/27 03:32:37;;;;;;;;;22.00;17.75;;;;;2.57;91.19;99742.66;4899893;28;101716;-79
2022/11/27 03:35:08;;;;;;;;;24.50;19.25;;;;;2.54;90.72;99745.56;4893117;28;101912;-78
2022/11/27 03:37:36;;;;;;;;;34.50;24.50;;;;;2.50;90.70;99746.78;4899821;28;103477;-79
2022/11/27 03:40:05;;;;;;;;;31.67;28.33;;;;;2.54;90.98;99748.25;4907802;28;102348;-78
2022/11/27 03:42:42;;;;;;;;;19.50;14.50;;;;;2.52;92.05;99736.81;4900213;28;101553;-78
2022/11/27 03:45:18;;;;;;;;;31.33;25.67;;;;;2.47;91.48;99752.38;4904629;28;102330;-79
2022/11/27 03:48:13;;;;;;;;;22.00;20.25;;;;;2.51;92.30;99742.31;4893998;28;102591;-78
2022/11/27 03:51:08;;;;;;;;;30.75;26.25;;;;;2.46;91.03;99741.81;4882808;28;101733;-78
2022/11/27 03:53:49;;;;;;;;;36.67;31.00;;;;;2.37;91.78;99735.38;4897848;28;101746;-78
2022/11/27 03:56:38;;;;;;;;;32.67;27.33;;;;;2.41;92.33;99744.84;4889491;28;102627;-79
2022/11/27 03:59:19;;;;;;;;;39.33;30.00;;;;;2.42;91.80;99740.38;4889790;28;107865;-78
2022/11/27 04:01:46;;;;;;;;;26.25;22.50;;;;;2.39;91.88;99730.75;4887610;28;101912;-78
2022/11/27 04:04:13;;;;;;;;;14.75;13.25;;;;;2.47;91.22;99749.72;4889689;28;102049;-78
2022/11/27 04:06:40;;;;;;;;;17.50;14.75;;;;;2.49;92.13;99739.75;4884165;28;101588;-78
2022/11/27 04:09:07;;;;;;;;;26.33;19.33;;;;;2.43;91.65;99744.75;4881586;28;103332;-78
2022/11/27 04:11:34;;;;;;;;;40.67;34.00;;;;;2.37;92.62;99743.41;4881297;28;101993;-78
2022/11/27 04:14:01;;;;;;;;;32.33;29.00;;;;;2.35;93.19;99748.00;4887870;28;101605;-78
2022/11/27 04:16:28;;;;;;;;;31.50;22.25;;;;;2.42;92.42;99749.22;4889121;28;101719;-78
2022/11/27 04:18:55;;;;;;;;;55.67;45.00;;;;;2.22;93.34;99747.25;4893202;28;103756;-78
2022/11/27 04:21:22;;;;;;;;;52.67;42.33;;;;;2.16;93.07;99742.44;4898574;28;101767;-78
2022/11/27 04:23:49;;;;;;;;;54.67;40.33;;;;;2.17;93.15;99746.78;4890988;28;101818;-78
2022/11/27 04:26:16;;;;;;;;;56.33;42.00;;;;;2.14;93.47;99744.34;4883919;28;102009;-78
2022/11/27 04:28:43;;;;;;;;;55.67;43.33;;;;;2.08;94.22;99750.16;4880783;28;103743;-77
2022/11/27 04:31:10;;;;;;;;;61.67;47.33;;;;;2.04;93.92;99743.38;4880112;28;101962;-78
2022/11/27 04:33:37;;;;;;;;;53.33;41.33;;;;;2.06;94.87;99749.44;4882582;28;101635;-78
2022/11/27 04:36:05;;;;;;;;;35.00;24.67;;;;;2.09;94.76;99742.03;4894088;28;101855;-78
2022/11/27 04:38:32;;;;;;;;;62.33;43.33;;;;;2.02;94.54;99734.66;4897468;28;103462;-78
2022/11/27 04:40:59;;;;;;;;;59.00;43.00;;;;;1.98;94.96;99741.19;4905187;28;101876;-77
2022/11/27 04:43:27;;;;;;;;;52.00;40.00;;;;;2.00;94.11;99739.25;4881285;28;101610;-78
2022/11/27 04:45:54;;;;;;;;;41.67;36.33;;;;;2.02;95.20;99745.31;4892084;28;101891;-77
2022/11/27 04:48:21;;;;;;;;;31.67;28.33;;;;;1.73;94.26;99695.09;4909329;28;103376;-78
2022/11/27 04:50:47;;;;;;;;;35.00;24.67;;;;;2.04;94.51;99740.69;4881822;28;101840;-78
2022/11/27 04:53:14;;;;;;;;;46.67;38.67;;;;;1.99;94.19;99730.38;4888811;28;101504;-78
2022/11/27 04:55:41;;;;;;;;;38.00;27.67;;;;;2.04;93.77;99743.38;4881518;28;101668;-79
2022/11/27 04:58:08;;;;;;;;;40.67;33.67;;;;;2.00;93.77;99734.75;4900704;28;103336;-78
2022/11/27 05:00:35;;;;;;;;;34.00;27.67;;;;;2.05;94.11;99743.25;4883533;28;101765;-78
2022/11/27 05:03:02;;;;;;;;;44.33;37.67;;;;;1.94;93.83;99727.22;4893748;28;101826;-78
2022/11/27 05:05:29;;;;;;;;;47.67;38.33;;;;;1.99;93.49;99737.53;4891141;28;101798;-78
2022/11/27 05:07:56;;;;;;;;;52.00;38.67;;;;;1.95;93.41;99738.75;4896723;28;103366;-78
2022/11/27 05:10:23;;;;;;;;;43.67;38.00;;;;;1.88;94.45;99742.88;4879395;28;102107;-72
2022/11/27 05:12:50;;;;;;;;;36.33;29.00;;;;;1.96;94.62;99746.63;4894453;28;101904;-79
2022/11/27 05:15:17;;;;;;;;;28.33;23.67;;;;;2.01;93.99;99735.59;4889368;28;102238;-79
2022/11/27 05:17:44;;;;;;;;;23.25;18.75;;;;;2.03;92.91;99737.19;4893202;28;103585;-78
2022/11/27 05:20:11;;;;;;;;;40.00;33.33;;;;;1.93;92.96;99730.88;4893278;28;101734;-78
2022/11/27 05:22:38;;;;;;;;;54.00;42.00;;;;;1.79;93.77;99713.28;4900498;28;102127;-78
2022/11/27 05:25:05;;;;;;;;;57.67;42.33;;;;;1.87;94.50;99736.69;4890341;28;101886;-79
2022/11/27 05:27:32;;;;;;;;;56.33;41.33;;;;;1.84;94.26;99730.75;4896586;28;104073;-78
2022/11/27 05:29:59;;;;;;;;;38.00;30.67;;;;;1.76;93.28;99712.66;4881733;28;101904;-78
2022/11/27 05:32:26;;;;;;;;;38.67;34.33;;;;;1.85;93.79;99732.44;4880949;28;101833;-78
2022/11/27 05:34:53;;;;;;;;;62.00;43.00;;;;;1.72;93.93;99735.19;4894197;28;102065;-78
2022/11/27 05:37:20;;;;;;;;;61.67;47.33;;;;;1.68;94.48;99734.56;4889744;28;107728;-78
2022/11/27 05:39:47;;;;;;;;;53.33;42.00;;;;;1.65;94.44;99732.16;4894733;28;102184;-78
2022/11/27 05:42:14;;;;;;;;;50.00;42.67;;;;;1.59;93.95;99729.94;4890440;28;101552;-78
2022/11/27 05:44:40;;;;;;;;;57.00;45.67;;;;;1.54;94.78;99725.91;4882292;28;101595;-77
2022/11/27 05:47:08;;;;;;;;;52.00;39.33;;;;;1.59;94.67;99731.75;4884975;28;104396;-78
2022/11/27 05:49:36;;;;;;;;;32.33;29.33;;;;;1.67;94.05;99740.88;4900819;28;101853;-78
2022/11/27 05:52:03;;;;;;;;;25.67;21.00;;;;;1.76;93.96;99737.50;4899994;28;101663;-78
2022/11/27 05:54:30;;;;;;;;;21.50;16.50;;;;;1.77;93.89;99736.53;4907735;28;101950;-77
2022/11/27 05:56:57;;;;;;;;;13.00;12.50;;;;;1.81;93.47;99718.47;4893709;28;102564;-77
2022/11/27 05:59:24;;;;;;;;;5.00;2.75;;;;;1.90;93.29;99733.75;4909543;28;101656;-76
2022/11/27 06:01:51;;;;;;;;;20.50;19.75;;;;;1.80;91.52;99730.97;4906897;28;101814;-78
2022/11/27 06:04:18;;;;;;;;;27.00;18.33;;;;;1.75;92.67;99732.31;4896129;28;101741;-78
2022/11/27 06:06:45;;;;;;;;;26.00;22.33;;;;;1.67;92.35;99714.22;4906324;28;103336;-78
2022/11/27 06:09:12;;;;;;;;;35.67;27.00;;;;;1.63;93.25;99715.41;4904626;28;102322;-77
2022/11/27 06:11:40;;;;;;;;;20.33;15.00;;;;;1.63;93.09;99718.06;4899805;28;101792;-78
2022/11/27 06:14:10;;;;;;;;;17.50;15.00;;;;;1.60;93.50;99705.00;4903392;28;102100;-78
2022/11/27 06:16:37;;;;;;;;;14.25;9.75;;;;;1.75;92.33;99719.81;4906645;28;103485;-77
2022/11/27 06:19:04;;;;;;;;;13.00;10.75;;;;;1.84;92.82;99730.75;4906034;28;101871;-78
2022/11/27 06:21:31;;;;;;;;;16.50;14.50;;;;;1.79;92.52;99728.44;4910640;28;101918;-76
2022/11/27 06:23:58;;;;;;;;;21.75;18.25;;;;;1.74;91.95;99722.59;4896610;28;102015;-77
2022/11/27 06:26:28;;;;;;;;;26.50;22.50;;;;;1.66;93.09;99707.19;4903728;28;103335;-77
2022/11/27 06:28:57;;;;;;;;;18.25;14.25;;;;;1.80;92.46;99725.63;4899757;28;106491;-78
2022/11/27 06:31:27;;;;;;;;;12.00;7.50;;;;;1.88;92.23;99726.88;4903045;28;102060;-77
2022/11/27 06:33:56;;;;;;;;;11.75;10.00;;;;;1.93;92.64;99724.69;4900844;28;101652;-78
2022/11/27 06:36:27;;;;;;;;;11.00;7.50;;;;;1.90;92.35;99719.59;4907610;28;107916;-78
2022/11/27 06:38:54;;;;;;;;;9.00;5.50;;;;;1.98;91.28;99722.53;4889270;28;101926;-78
2022/11/27 06:41:23;;;;;;;;;6.00;6.00;;;;;2.01;91.21;99727.59;4907062;28;102577;-78
2022/11/27 06:43:50;;;;;;;;;5.25;3.00;;;;;2.03;90.74;99729.19;4905654;28;101979;-78
2022/11/27 06:46:19;;;;;;;;;2.00;1.75;;;;;2.01;91.13;99722.28;4901461;28;103473;-78
2022/11/27 06:48:48;;;;;;;;;14.00;10.50;;;;;1.98;90.74;99717.19;4906567;28;101845;-78
2022/11/27 06:51:20;;;;;;;;;13.25;10.00;;;;;2.01;90.48;99724.94;4904545;28;102056;-77
2022/11/27 06:53:47;;;;;;;;;17.00;12.25;;;;;2.02;90.78;99724.84;4905318;28;101905;-80
2022/11/27 06:56:19;;;;;;;;;19.00;18.00;;;;;2.03;90.28;99725.66;4895899;28;103466;-77
2022/11/27 06:58:50;;;;;;;;;10.50;9.00;;;;;2.07;90.80;99732.47;4902871;28;103459;-78
2022/11/27 07:01:17;;;;;;;;;9.25;9.25;;;;;2.00;90.88;99713.41;4902060;28;101628;-80
2022/11/27 07:03:44;;;;;;;;;12.00;11.50;;;;;2.06;90.04;99725.44;4904190;28;101668;-78
2022/11/27 07:06:19;;;;;;;;;9.00;6.00;;;;;2.08;90.58;99719.00;4904765;28;103336;-78
2022/11/27 07:08:46;;;;;;;;;4.75;2.75;;;;;2.13;90.31;99731.97;4898166;28;105655;-77
2022/11/27 07:11:17;;;;;;;;;6.00;5.00;;;;;2.18;90.19;99738.66;4903580;28;101787;-77
2022/11/27 07:13:45;;;;;;;;;3.50;3.50;;;;;2.17;90.27;99734.28;4901314;28;101837;-78
2022/11/27 07:16:14;;;;;;;;;4.00;4.00;;;;;2.23;90.28;99743.63;4900911;28;102525;-78
2022/11/27 07:18:43;;;;;;;;;5.25;5.00;;;;;2.26;90.03;99746.06;4899600;28;101958;-80
2022/11/27 07:21:11;;;;;;;;;10.50;5.00;;;;;2.24;90.07;99740.00;4907770;28;101765;-78
2022/11/27 07:23:38;;;;;;;;;3.00;3.00;;;;;2.37;89.84;99756.75;4894754;28;101636;-79
2022/11/27 07:26:06;;;;;;;;;5.75;5.25;;;;;2.41;90.49;99752.84;4900146;28;103330;-78
2022/11/27 07:28:33;;;;;;;;;3.50;3.50;;;;;2.48;90.22;99755.88;4900283;28;101999;-78
2022/11/27 07:31:01;;;;;;;;;13.00;10.75;;;;;2.53;89.45;99757.22;4898449;28;101748;-78
2022/11/27 07:33:28;;;;;;;;;19.00;17.75;;;;;2.58;89.98;99759.50;4897650;28;101834;-78
2022/11/27 07:36:07;;;;;;;;;9.75;8.75;;;;;2.62;89.86;99760.97;4909040;28;103103;-78
2022/11/27 07:38:34;;;;;;;;;7.00;6.00;;;;;2.59;89.53;99745.19;4901268;28;101493;-78
2022/11/27 07:41:03;;;;;;;;;9.50;7.50;;;;;2.63;89.25;99750.19;4894829;28;109651;-78
2022/11/27 07:43:31;;;;;;;;;9.25;8.00;;;;;2.67;89.43;99748.94;4902272;28;101993;-78
2022/11/27 07:46:02;;;;;;;;;9.50;7.25;;;;;2.70;89.19;99746.03;4908663;28;103325;-77
2022/11/27 07:48:29;;;;;;;;;13.00;9.00;;;;;2.73;90.18;99746.78;4894989;28;101618;-78
2022/11/27 07:50:57;;;;;;;;;9.00;7.00;;;;;2.75;89.66;99751.00;4903166;28;102830;-77
2022/11/27 07:53:24;;;;;;;;;12.00;10.00;;;;;2.80;89.61;99754.16;4920619;28;101984;-78
2022/11/27 07:55:51;;;;;;;;;7.00;6.00;;;;;2.77;89.76;99737.53;4900493;28;108458;-78
2022/11/27 07:58:18;;;;;;;;;7.00;5.25;;;;;2.91;90.17;99750.63;4905166;28;103277;-78
2022/11/27 08:00:47;;;;;;;;;5.50;5.25;;;;;2.94;89.33;99745.88;4909700;28;101687;-79
2022/11/27 08:03:15;;;;;;;;;6.75;6.00;;;;;2.95;89.25;99741.38;4910701;28;101693;-77
2022/11/27 08:05:42;;;;;;;;;6.00;5.00;;;;;2.99;90.03;99742.81;4904305;28;103334;-78
2022/11/27 08:08:09;;;;;;;;;8.75;6.00;;;;;3.04;90.27;99745.97;4903646;28;101910;-78
2022/11/27 08:10:37;;;;;;;;;9.00;6.00;;;;;3.07;90.20;99751.06;4903709;28;102070;-78
2022/11/27 08:13:05;;;;;;;;;9.50;7.50;;;;;3.08;89.26;99742.06;4900324;28;101699;-78
2022/11/27 08:15:33;;;;;;;;;9.50;7.75;;;;;3.12;89.69;99746.19;4900540;28;103357;-78
2022/11/27 08:18:00;;;;;;;;;6.75;6.00;;;;;3.10;89.30;99737.47;4899663;28;102060;-80
2022/11/27 08:20:27;;;;;;;;;7.00;6.00;;;;;3.19;89.03;99741.19;4904440;28;102073;-76
2022/11/27 08:22:54;;;;;;;;;2.00;2.00;;;;;3.23;87.78;99750.66;4901643;28;101748;-79
2022/11/27 08:25:28;;;;;;;;;8.50;6.00;;;;;3.23;88.33;99748.84;4906532;28;107927;-78
2022/11/27 08:27:55;;;;;;;;;9.50;8.25;;;;;3.25;88.03;99748.69;4910059;28;102222;-78
2022/11/27 08:30:25;;;;;;;;;7.75;7.00;;;;;3.24;87.56;99753.22;4910663;28;101869;-78
2022/11/27 08:32:51;;;;;;;;;9.00;7.50;;;;;3.22;88.33;99733.78;4908802;28;101837;-78
2022/11/27 08:35:18;;;;;;;;;11.75;9.00;;;;;3.26;87.76;99745.91;4900595;28;103304;-78
2022/11/27 08:37:46;;;;;;;;;9.00;8.25;;;;;3.33;88.05;99744.41;4905596;28;101857;-78
2022/11/27 08:40:13;;;;;;;;;19.00;18.50;;;;;3.08;87.77;99732.25;4904978;28;101876;-77
2022/11/27 08:42:39;;;;;;;;;14.50;13.75;;;;;3.24;88.61;99742.53;4909992;28;102102;-77
2022/11/27 08:45:07;;;;;;;;;10.75;8.75;;;;;3.28;88.77;99754.66;4907219;28;103302;-77
2022/11/27 08:47:34;;;;;;;;;10.25;7.25;;;;;3.37;88.01;99756.56;4900091;28;101784;-77
2022/11/27 08:50:01;;;;;;;;;8.75;6.00;;;;;3.38;87.99;99752.91;4907569;28;109361;-78
2022/11/27 08:52:28;;;;;;;;;7.75;5.75;;;;;3.45;87.58;99747.91;4909152;28;101797;-78
2022/11/27 08:54:55;;;;;;;;;14.00;11.75;;;;;3.43;86.31;99757.84;4917964;28;103374;-77
2022/11/27 08:57:24;;;;;;;;;15.75;15.00;;;;;3.41;86.38;99754.47;4919116;28;101917;-77
2022/11/27 08:59:51;;;;;;;;;12.25;11.25;;;;;3.50;87.76;99754.56;4909622;28;101976;-77
2022/11/27 09:02:18;;;;;;;;;8.00;5.25;;;;;3.44;88.03;99733.69;4911437;28;102048;-78
2022/11/27 09:04:44;;;;;;;;;6.00;5.75;;;;;3.64;87.85;99750.75;4917316;28;103379;-78
2022/11/27 09:07:14;;;;;;;;;3.00;2.50;;;;;3.73;86.91;99758.00;4934100;28;101886;-77
2022/11/27 09:09:41;;;;;;;;;9.50;9.25;;;;;3.69;87.42;99736.97;4919379;28;102840;-77
2022/11/27 09:12:08;;;;;;;;;22.00;20.25;;;;;3.60;85.67;99755.47;4918758;28;102025;-77
2022/11/27 09:14:35;;;;;;;;;16.75;14.50;;;;;3.65;86.33;99751.59;4903164;28;103324;-77
2022/11/27 09:17:02;;;;;;;;;10.25;8.00;;;;;3.72;87.03;99758.09;4902721;28;101886;-78
2022/11/27 09:19:29;;;;;;;;;10.00;7.00;;;;;3.75;86.23;99737.28;4906610;28;103022;-78
2022/11/27 09:21:57;;;;;;;;;16.75;12.50;;;;;3.69;86.18;99753.03;4900534;28;102387;-79
2022/11/27 09:24:24;;;;;;;;;21.75;19.75;;;;;3.57;86.94;99749.53;4902318;28;103403;-80
2022/11/27 09:26:53;;;;;;;;;16.25;14.00;;;;;3.70;86.10;99750.19;4907987;28;101811;-80
2022/11/27 09:29:20;;;;;;;;;30.50;23.25;;;;;3.29;84.89;99724.25;4898061;28;102231;-79
2022/11/27 09:31:47;;;;;;;;;26.75;19.75;;;;;3.47;85.72;99737.91;4905815;28;101606;-79
2022/11/27 09:34:14;;;;;;;;;16.50;13.75;;;;;3.63;84.92;99748.19;4906067;28;103508;-77
2022/11/27 09:36:41;;;;;;;;;7.25;5.00;;;;;3.72;84.42;99734.88;4908391;28;102511;-77
2022/11/27 09:39:08;;;;;;;;;24.50;20.50;;;;;3.80;84.92;99729.72;4910028;28;101726;-77
2022/11/27 09:41:50;;;;;;;;;18.25;16.75;;;;;3.88;85.18;99734.41;4908082;28;102011;-79
2022/11/27 09:44:32;;;;;;;;;19.00;16.00;;;;;3.96;85.42;99734.63;4898234;28;103369;-76
2022/11/27 09:47:24;;;;;;;;;34.25;27.75;;;;;3.73;84.57;99727.72;4912114;28;101885;-78
2022/11/27 09:50:00;;;;;;;;;37.25;31.00;;;;;3.74;84.69;99742.78;4915724;28;103931;-78
2022/11/27 09:52:45;;;;;;;;;41.25;36.50;;;;;3.60;84.54;99746.63;4897459;28;101674;-78
2022/11/27 09:55:19;;;;;;;;;31.00;26.50;;;;;3.68;84.75;99744.16;4907090;28;107665;-77
2022/11/27 09:58:06;;;;;;;;;29.25;21.25;;;;;3.81;84.16;99728.75;4898589;28;101862;-78
2022/11/27 10:00:33;;;;;;;;;20.50;18.25;;;;;4.00;82.93;99730.72;4914508;28;101691;-79
2022/11/27 10:03:00;;;;;;;;;24.50;21.25;;;;;4.01;82.50;99735.91;4910493;22;102945;-70
2022/11/27 10:05:44;;;;;;;;;37.25;29.75;;;;;3.87;81.36;99735.41;4914681;28;104007;-72
2022/11/27 10:08:21;;;;;;;;;25.00;20.00;;;;;4.07;82.26;99739.03;4915070;28;102545;-71
2022/11/27 10:10:48;;;;;;;;;19.50;15.75;;;;;4.12;81.71;99735.00;4917202;28;102184;-70
2022/11/27 10:13:37;;;;;;;;;46.50;36.25;;;;;3.84;82.38;99715.09;4913498;28;102229;-71
2022/11/27 10:16:30;;;;;;;;;42.25;35.75;;;;;3.98;82.56;99724.63;4917768;28;108757;-70
2022/11/27 10:19:12;;;;;;;;;38.25;30.25;;;;;4.05;82.10;99720.47;4914743;28;101970;-71
2022/11/27 10:22:01;;;;;;;;;33.25;27.75;;;;;4.07;83.00;99721.16;4910942;28;102356;-71
2022/11/27 10:24:37;;;;;;;;;26.25;24.50;;;;;4.22;82.78;99725.19;4931590;28;101960;-71
2022/11/27 10:27:26;;;;;;;;;28.50;20.50;;;;;4.30;81.96;99716.47;4918695;28;103685;-71
2022/11/27 10:29:55;;;;;;;;;43.75;37.50;;;;;4.13;82.08;99712.59;4921635;28;102309;-71
2022/11/27 10:32:26;;;;;;;;;38.25;33.75;;;;;4.15;83.59;99710.63;4929655;28;102324;-71
2022/11/27 10:35:17;;;;;;;;;22.75;19.25;;;;;4.37;81.43;99701.56;4918285;28;103434;-71
2022/11/27 10:38:02;;;;;;;;;17.00;14.75;;;;;4.47;77.58;99700.63;4918858;28;104315;-70
2022/11/27 10:41:13;;;;;;;;;13.25;12.75;;;;;4.59;78.50;99693.34;4899635;28;102615;-71
2022/11/27 10:44:22;;;;;;;;;15.25;13.50;;;;;4.61;79.85;99691.38;4907413;28;103038;-70
2022/11/27 10:46:52;;;;;;;;;18.50;16.50;;;;;4.62;78.25;99689.53;4913632;28;105818;-70
2022/11/27 10:49:20;;;;;;;;;22.50;20.25;;;;;4.65;79.38;99691.94;4925783;28;104006;-70
2022/11/27 10:51:47;;;;;;;;;16.75;13.00;;;;;4.67;79.37;99689.97;4917244;28;102344;-69
2022/11/27 10:54:29;;;;;;;;;21.25;18.00;;;;;4.76;80.13;99692.69;4915541;28;105816;-70
2022/11/27 10:57:14;;;;;;;;;22.25;19.00;;;;;4.72;79.32;99683.25;4918245;28;102277;-70
2022/11/27 11:00:09;;;;;;;;;23.75;21.75;;;;;4.53;79.81;99690.38;4917127;28;108928;-71
2022/11/27 11:02:38;;;;;;;;;27.75;21.50;;;;;4.42;78.93;99681.44;4922455;28;102720;-70
2022/11/27 11:05:10;;;;;;;;;24.50;16.50;;;;;4.57;80.10;99681.91;4914183;28;102399;-71
2022/11/27 11:08:04;;;;;;;;;22.00;16.25;;;;;4.77;78.83;99677.47;4913351;28;102491;-69
2022/11/27 11:10:42;;;;;;;;;13.25;12.00;;;;;4.93;78.47;99678.63;4919477;28;108724;-71
2022/11/27 11:16:57;;;;;;;;;11.25;10.00;;;;;5.04;77.04;99680.34;4801560;23;104471;-78
2022/11/27 11:19:30;;;;;;;;;6.75;6.00;;;;;5.15;76.17;99672.13;4943183;28;102090;-78
2022/11/27 11:21:59;;;;;;;;;8.50;6.50;;;;;5.18;74.54;99655.75;4948299;28;108569;-77
2022/11/27 11:24:29;;;;;;;;;5.00;3.00;;;;;5.36;75.62;99670.16;4959121;28;101883;-78
2022/11/27 11:27:00;;;;;;;;;11.50;10.75;;;;;5.13;73.87;99658.06;4952935;28;102769;-78
2022/11/27 11:29:45;;;;;;;;;12.50;11.00;;;;;5.26;75.95;99666.66;4954054;28;101799;-78
2022/11/27 11:32:15;;;;;;;;;8.50;6.75;;;;;5.19;75.52;99659.28;4963673;28;107433;-78
2022/11/27 11:34:46;;;;;;;;;16.25;14.00;;;;;4.93;75.48;99640.25;4958186;28;101833;-78
2022/11/27 11:37:23;;;;;;;;;18.50;15.75;;;;;5.05;77.08;99649.84;4956251;28;101867;-78
2022/11/27 11:39:56;;;;;;;;;13.50;10.75;;;;;5.10;76.73;99647.59;4937610;28;101902;-78
2022/11/27 11:42:29;;;;;;;;;17.75;16.50;;;;;4.89;77.70;99655.75;4950951;28;103470;-78
2022/11/27 11:45:17;;;;;;;;;24.00;22.00;;;;;4.60;78.44;99637.94;4951885;28;102051;-78
2022/11/27 11:47:45;;;;;;;;;16.75;15.00;;;;;4.61;78.65;99650.34;4958684;28;101957;-78